Time;durP1;ratioP1;P1;durP2;ratioP2;P2;SDS_P1;SDS_P2;PMS_P1;PMS_P2;Temp;Humidity;BMP_temperature;BMP_pressure;BME280_temperature;BME280_humidity;BME280_pressure;Samples;Min_cycle;Max_cycle;Signal;HPM_P1;HPM_P2
2022/01/21 05:02:33;;;;;;;13.50;5.43;;;0.50;99.90;;;;;;5027680;22;94536;-79
2022/01/21 05:04:59;;;;;;;14.15;5.55;;;0.50;99.90;;;;;;4997389;28;94527;-78
2022/01/21 05:07:26;;;;;;;13.38;5.38;;;0.50;99.90;;;;;;4995485;28;97512;-78
2022/01/21 05:09:52;;;;;;;13.15;5.90;;;0.50;99.90;;;;;;4997107;28;95327;-78
2022/01/21 05:12:20;;;;;;;12.85;5.25;;;0.50;99.90;;;;;;4996972;28;94483;-78
2022/01/21 05:15:10;;;;;;;15.35;6.55;;;0.40;99.90;;;;;;4997876;28;95394;-78
2022/01/21 05:17:43;;;;;;;10.50;5.30;;;0.40;99.90;;;;;;4997308;28;94542;-78
2022/01/21 05:20:10;;;;;;;13.75;5.40;;;0.40;99.90;;;;;;4997675;28;94437;-79
2022/01/21 05:22:35;;;;;;;13.98;5.43;;;0.40;99.90;;;;;;4996894;28;94452;-78
2022/01/21 05:25:01;;;;;;;14.00;5.68;;;0.40;99.90;;;;;;4996996;28;94500;-78
2022/01/21 05:27:27;;;;;;;13.52;6.10;;;0.40;99.90;;;;;;4997032;28;94805;-78
2022/01/21 05:29:52;;;;;;;11.07;5.45;;;0.40;99.90;;;;;;4995716;28;94535;-78
2022/01/21 05:32:18;;;;;;;16.77;5.78;;;0.40;99.90;;;;;;4996283;28;94556;-78
2022/01/21 05:34:44;;;;;;;15.25;5.90;;;0.40;99.90;;;;;;4996137;28;96536;-78
2022/01/21 05:37:09;;;;;;;14.00;7.07;;;0.30;99.90;;;;;;4996669;28;95109;-78
2022/01/21 05:39:35;;;;;;;15.40;7.22;;;0.30;99.90;;;;;;4997140;28;94361;-78
2022/01/21 05:42:02;;;;;;;17.10;6.57;;;0.30;99.90;;;;;;4996527;28;94495;-78
2022/01/21 05:46:59;;;;;;;22.30;7.10;;;0.20;99.90;;;;;;4997435;28;94541;-78
2022/01/21 05:49:27;;;;;;;20.70;8.13;;;0.20;99.90;;;;;;4997321;28;94597;-78
2022/01/21 05:52:01;;;;;;;18.70;6.60;;;0.30;99.90;;;;;;4998441;28;94328;-78
2022/01/21 05:54:27;;;;;;;17.40;6.20;;;0.20;99.90;;;;;;4994883;28;97893;-78
2022/01/21 05:56:53;;;;;;;18.45;6.63;;;0.20;99.90;;;;;;4996396;28;94802;-78
2022/01/21 05:59:19;;;;;;;18.50;8.10;;;0.20;99.90;;;;;;4996619;28;95453;-80
2022/01/21 06:01:45;;;;;;;18.02;7.72;;;0.20;99.90;;;;;;4996379;28;94512;-78
2022/01/21 06:04:10;;;;;;;22.27;8.15;;;0.20;99.90;;;;;;4996259;28;95598;-79
2022/01/21 06:06:36;;;;;;;18.25;7.80;;;0.20;99.90;;;;;;4996308;28;95253;-78
2022/01/21 06:09:03;;;;;;;17.75;7.00;;;0.20;99.90;;;;;;4997029;28;94442;-78
2022/01/21 06:11:29;;;;;;;19.17;7.28;;;0.20;99.90;;;;;;4996675;28;94515;-78
2022/01/21 06:13:54;;;;;;;15.70;7.03;;;0.20;99.90;;;;;;4995746;28;95043;-79
2022/01/21 06:16:20;;;;;;;22.85;7.63;;;0.20;99.90;;;;;;4995166;28;97496;-79
2022/01/21 06:18:46;;;;;;;14.98;7.25;;;0.20;99.90;;;;;;4999340;28;94346;-80
2022/01/21 06:21:12;;;;;;;14.60;7.57;;;0.10;99.90;;;;;;4998152;28;94702;-79
2022/01/21 06:23:37;;;;;;;17.52;6.95;;;0.10;99.90;;;;;;4999133;28;95525;-79
2022/01/21 06:26:03;;;;;;;18.65;7.78;;;0.20;99.90;;;;;;4999687;28;96020;-80
2022/01/21 06:28:29;;;;;;;16.15;7.30;;;0.20;99.90;;;;;;5000027;28;94457;-79
2022/01/21 06:30:55;;;;;;;14.77;6.68;;;0.20;99.90;;;;;;4999815;28;94503;-80
2022/01/21 06:33:20;;;;;;;17.83;7.65;;;0.20;99.90;;;;;;4999834;28;95369;-80
2022/01/21 06:35:47;;;;;;;15.60;7.18;;;0.30;99.90;;;;;;4997845;28;96938;-80
2022/01/21 06:38:13;;;;;;;16.33;6.47;;;0.20;99.90;;;;;;4999991;28;94383;-80
2022/01/21 06:40:39;;;;;;;25.80;7.60;;;0.30;99.90;;;;;;4998187;28;93712;-79
2022/01/21 06:43:04;;;;;;;16.42;7.43;;;0.30;99.90;;;;;;4999285;28;95276;-80
2022/01/21 06:45:30;;;;;;;17.55;7.60;;;0.30;99.90;;;;;;4999760;28;94761;-80
2022/01/21 06:47:58;;;;;;;19.08;7.35;;;0.30;99.90;;;;;;4999053;28;95353;-80
2022/01/21 06:50:25;;;;;;;16.38;6.78;;;0.40;99.90;;;;;;5000428;28;94588;-79
2022/01/21 06:52:50;;;;;;;17.05;7.10;;;0.40;99.90;;;;;;5007279;28;95114;-80
2022/01/21 06:55:16;;;;;;;16.75;8.00;;;0.50;99.90;;;;;;5009736;28;95333;-79
2022/01/21 06:57:41;;;;;;;19.33;6.90;;;0.50;99.90;;;;;;5001166;28;94353;-80
2022/01/21 07:00:13;;;;;;;16.30;6.85;;;0.50;99.90;;;;;;5001441;28;94459;-79
2022/01/21 07:02:39;;;;;;;15.90;6.85;;;0.50;99.90;;;;;;4998701;28;96764;-79
2022/01/21 07:05:06;;;;;;;14.68;6.43;;;0.60;99.90;;;;;;5001358;28;95291;-80
2022/01/21 07:07:32;;;;;;;20.38;7.45;;;0.60;99.90;;;;;;5001889;28;94469;-80
2022/01/21 07:10:00;;;;;;;17.02;8.05;;;0.60;99.90;;;;;;5001075;28;94421;-80
2022/01/21 07:12:26;;;;;;;15.10;7.43;;;0.60;99.90;;;;;;4999287;28;97736;-80
2022/01/21 07:14:51;;;;;;;17.98;6.88;;;0.60;99.90;;;;;;5002181;28;94571;-80
2022/01/21 07:17:17;;;;;;;24.50;7.35;;;0.60;99.90;;;;;;5000268;28;94588;-80
2022/01/21 07:19:42;;;;;;;17.52;7.60;;;0.60;99.90;;;;;;4996918;28;95153;-79
2022/01/21 07:22:08;;;;;;;17.80;8.27;;;0.60;99.90;;;;;;4997931;28;96880;-80
2022/01/21 07:24:33;;;;;;;18.10;7.05;;;0.60;99.90;;;;;;4995154;28;97864;-79
2022/01/21 07:26:59;;;;;;;17.83;7.18;;;0.60;99.90;;;;;;4997890;28;94465;-79
2022/01/21 07:29:24;;;;;;;18.88;7.15;;;0.60;99.90;;;;;;4996567;28;93757;-79
2022/01/21 07:31:54;;;;;;;21.13;7.18;;;0.60;99.90;;;;;;4996179;28;94542;-79
2022/01/21 07:34:21;;;;;;;15.82;6.95;;;0.60;99.90;;;;;;4996427;28;97982;-79
2022/01/21 07:36:46;;;;;;;18.52;7.00;;;0.60;99.90;;;;;;4999875;28;95436;-80
2022/01/21 07:39:12;;;;;;;14.45;7.70;;;0.60;99.90;;;;;;5000030;28;94445;-79
2022/01/21 07:41:38;;;;;;;18.05;6.57;;;0.70;99.90;;;;;;4999323;28;95461;-79
2022/01/21 07:44:04;;;;;;;14.95;7.32;;;0.70;99.90;;;;;;5014371;28;94836;-79
2022/01/21 07:46:29;;;;;;;14.70;6.38;;;0.70;99.90;;;;;;5019193;28;93871;-80
2022/01/21 07:48:59;;;;;;;16.08;6.90;;;0.80;99.90;;;;;;5007806;28;94628;-78
2022/01/21 07:51:25;;;;;;;16.23;7.32;;;0.80;99.90;;;;;;5004682;28;94347;-79
2022/01/21 07:53:51;;;;;;;14.98;8.15;;;0.90;99.90;;;;;;5000342;28;97646;-80
2022/01/21 07:56:17;;;;;;;17.00;6.53;;;0.90;99.90;;;;;;4999177;28;94422;-78
2022/01/21 07:58:43;;;;;;;16.55;7.22;;;1.00;99.90;;;;;;4995948;28;94590;-80
2022/01/21 08:01:09;;;;;;;16.40;7.57;;;1.00;99.90;;;;;;4996276;28;99073;-80
2022/01/21 08:03:34;;;;;;;16.90;7.40;;;1.00;99.90;;;;;;4995887;28;97495;-79
2022/01/21 08:06:00;;;;;;;18.58;8.32;;;1.10;99.90;;;;;;4999538;28;94523;-79
2022/01/21 08:08:26;;;;;;;18.58;8.48;;;1.10;99.90;;;;;;4998133;28;95047;-78
2022/01/21 08:10:53;;;;;;;23.45;8.38;;;1.10;99.90;;;;;;4997956;28;98234;-79
2022/01/21 08:13:19;;;;;;;20.70;7.40;;;1.10;99.90;;;;;;4998890;28;96525;-79
2022/01/21 08:15:45;;;;;;;17.98;7.95;;;1.20;99.90;;;;;;4995832;28;94494;-80
2022/01/21 08:18:10;;;;;;;15.40;7.18;;;1.30;99.90;;;;;;4997414;28;93599;-79
2022/01/21 08:20:36;;;;;;;21.42;8.27;;;1.40;99.90;;;;;;4996650;28;95550;-79
2022/01/21 08:23:02;;;;;;;19.67;7.45;;;1.50;99.90;;;;;;4996778;28;95110;-80
2022/01/21 08:25:28;;;;;;;14.27;7.35;;;1.50;99.90;;;;;;4996729;28;95474;-79
2022/01/21 08:27:53;;;;;;;20.60;7.97;;;1.60;99.90;;;;;;4997238;28;94473;-78
2022/01/21 08:30:19;;;;;;;17.00;7.35;;;1.60;99.90;;;;;;4994219;28;94512;-77
2022/01/21 08:32:45;;;;;;;20.83;7.82;;;1.60;99.90;;;;;;4994148;28;94441;-78
2022/01/21 08:35:10;;;;;;;15.00;7.63;;;1.70;99.90;;;;;;4994858;28;94394;-78
2022/01/21 08:37:36;;;;;;;20.35;8.38;;;1.70;99.90;;;;;;4995673;28;94496;-79
2022/01/21 08:40:03;;;;;;;19.45;7.28;;;1.80;99.90;;;;;;4998302;28;96257;-79
2022/01/21 08:42:29;;;;;;;15.20;7.32;;;1.90;99.90;;;;;;4998017;28;95582;-79
2022/01/21 08:44:55;;;;;;;14.75;7.38;;;1.90;99.90;;;;;;4998442;28;94342;-79
2022/01/21 08:47:22;;;;;;;15.10;7.43;;;1.90;99.90;;;;;;4998069;28;94500;-79
2022/01/21 08:49:49;;;;;;;13.93;6.80;;;2.00;99.90;;;;;;4997407;28;97488;-79
2022/01/21 08:52:20;;;;;;;17.13;7.75;;;2.00;99.90;;;;;;4997410;28;94606;-79
2022/01/21 08:54:47;;;;;;;15.88;7.13;;;2.10;99.90;;;;;;4998424;28;94338;-79
2022/01/21 08:57:13;;;;;;;15.45;7.32;;;2.00;99.90;;;;;;4998828;28;94495;-79
2022/01/21 08:59:38;;;;;;;15.52;6.97;;;2.10;99.90;;;;;;4999954;28;95185;-79
2022/01/21 09:02:04;;;;;;;12.07;6.40;;;2.10;99.90;;;;;;4999508;28;94717;-79
2022/01/21 09:04:30;;;;;;;17.17;6.28;;;2.20;99.90;;;;;;4998802;28;94430;-79
2022/01/21 09:06:56;;;;;;;19.55;6.68;;;2.30;99.90;;;;;;4998441;28;93733;-79
2022/01/21 09:09:21;;;;;;;17.70;6.50;;;2.30;99.90;;;;;;4997353;28;95284;-78
2022/01/21 09:11:47;;;;;;;16.60;7.03;;;2.40;99.90;;;;;;4997416;28;95217;-79
2022/01/21 09:14:13;;;;;;;12.93;6.93;;;2.40;99.90;;;;;;4996086;28;95405;-79
2022/01/21 09:16:42;;;;;;;18.60;6.55;;;2.40;99.90;;;;;;4995825;28;94433;-78
2022/01/21 09:19:07;;;;;;;16.60;6.93;;;2.50;99.90;;;;;;4997133;28;95013;-78
2022/01/21 09:21:36;;;;;;;16.35;6.90;;;2.60;99.90;;;;;;4997123;28;94459;-79
2022/01/21 09:24:03;;;;;;;17.35;7.05;;;2.60;99.90;;;;;;4996501;28;94524;-78
2022/01/21 09:26:29;;;;;;;18.95;7.70;;;2.70;99.90;;;;;;4997871;28;94582;-78
2022/01/21 09:28:56;;;;;;;19.63;6.88;;;2.60;99.90;;;;;;4997110;28;95235;-79
2022/01/21 09:31:22;;;;;;;16.00;6.45;;;2.60;99.90;;;;;;4996195;28;97208;-79
2022/01/21 09:33:48;;;;;;;16.95;7.20;;;2.60;99.90;;;;;;4996045;28;94616;-79
2022/01/21 09:36:16;;;;;;;14.18;6.85;;;2.60;99.90;;;;;;4995850;28;94544;-79
2022/01/21 09:38:41;;;;;;;14.43;7.00;;;2.50;99.90;;;;;;4997909;28;99322;-79
2022/01/21 09:41:09;;;;;;;12.88;6.55;;;2.50;99.90;;;;;;4998417;28;97755;-78
2022/01/21 09:43:37;;;;;;;18.48;6.95;;;2.50;99.90;;;;;;4999455;28;94519;-79
2022/01/21 09:46:05;;;;;;;15.25;6.82;;;2.60;99.90;;;;;;5000316;28;94463;-79
2022/01/21 09:48:36;;;;;;;15.52;6.57;;;2.60;99.90;;;;;;4998404;28;98270;-79
2022/01/21 09:51:03;;;;;;;12.90;6.70;;;2.70;99.90;;;;;;4998554;28;96598;-78
2022/01/21 09:53:31;;;;;;;16.65;6.50;;;2.70;99.90;;;;;;4999329;28;94544;-79
2022/01/21 09:56:03;;;;;;;16.33;7.10;;;2.80;99.90;;;;;;5000955;28;93937;-79
2022/01/21 09:58:31;;;;;;;12.30;6.07;;;2.80;99.90;;;;;;4999140;28;98189;-79
2022/01/21 10:00:59;;;;;;;15.25;6.22;;;2.90;99.90;;;;;;5000494;28;94899;-79
2022/01/21 10:03:25;;;;;;;13.60;6.50;;;2.90;99.90;;;;;;4999056;28;95410;-79
2022/01/21 10:05:53;;;;;;;12.90;6.60;;;3.00;99.90;;;;;;5000411;28;94350;-79
2022/01/21 10:08:21;;;;;;;15.52;6.60;;;3.10;99.90;;;;;;4996537;28;95398;-79
2022/01/21 10:10:47;;;;;;;14.35;6.03;;;3.20;99.90;;;;;;4999589;28;95314;-79
2022/01/21 10:13:16;;;;;;;14.50;6.75;;;3.20;99.90;;;;;;4995732;28;94555;-79
2022/01/21 10:15:41;;;;;;;12.95;5.90;;;3.30;99.90;;;;;;4997872;28;94432;-79
2022/01/21 10:18:13;;;;;;;14.93;6.38;;;3.40;99.90;;;;;;5003155;28;95646;-79
2022/01/21 10:21:00;;;;;;;12.63;6.18;;;3.40;99.90;;;;;;5007741;28;94961;-79
2022/01/21 10:23:29;;;;;;;13.65;6.60;;;3.50;99.90;;;;;;5006671;28;94817;-79
2022/01/21 10:26:03;;;;;;;14.07;5.50;;;3.50;99.90;;;;;;5003837;28;94453;-78
2022/01/21 10:28:30;;;;;;;16.38;5.70;;;3.70;99.90;;;;;;5004858;28;95742;-81
2022/01/21 10:31:11;;;;;;;13.15;6.18;;;3.60;99.90;;;;;;5001684;28;94892;-79
2022/01/21 10:33:40;;;;;;;16.05;5.93;;;3.70;99.90;;;;;;5000884;28;95290;-80
2022/01/21 10:36:34;;;;;;;13.88;6.80;;;3.50;99.90;;;;;;5001152;28;94525;-78
2022/01/21 10:39:18;;;;;;;16.70;5.78;;;3.70;99.90;;;;;;5001177;28;94566;-78
2022/01/21 10:41:47;;;;;;;12.20;5.55;;;3.80;99.90;;;;;;4999564;28;97008;-79
2022/01/21 10:44:18;;;;;;;19.30;6.03;;;3.80;99.90;;;;;;4998852;28;94351;-79
2022/01/21 10:47:00;;;;;;;17.70;5.55;;;3.70;99.90;;;;;;4999793;28;93698;-79
2022/01/21 10:49:26;;;;;;;15.85;6.20;;;3.70;99.90;;;;;;4994835;28;125304;-79
2022/01/21 10:51:52;;;;;;;13.77;5.95;;;3.70;99.90;;;;;;4996412;28;94828;-78
2022/01/21 10:54:22;;;;;;;15.35;5.85;;;3.70;99.90;;;;;;4995966;28;95488;-79
2022/01/21 10:57:08;;;;;;;16.73;5.63;;;3.50;99.90;;;;;;4999118;28;94449;-78
2022/01/21 10:59:45;;;;;;;15.13;5.18;;;3.50;99.90;;;;;;5014008;28;95005;-79
2022/01/21 11:02:12;;;;;;;15.27;5.90;;;3.60;99.90;;;;;;4997524;28;94917;-78
2022/01/21 11:04:42;;;;;;;14.75;5.22;;;3.50;99.90;;;;;;4996263;28;94500;-78
2022/01/21 11:07:09;;;;;;;18.08;6.55;;;3.50;99.90;;;;;;4996056;28;95006;-78
2022/01/21 11:09:38;;;;;;;15.95;5.78;;;3.50;99.90;;;;;;4994972;28;97626;-79
2022/01/21 11:12:16;;;;;;;10.90;5.10;;;3.50;99.90;;;;;;4994097;28;97596;-79
2022/01/21 11:14:56;;;;;;;14.32;5.90;;;3.50;99.90;;;;;;4997493;28;94870;-77
2022/01/21 11:17:22;;;;;;;12.75;5.15;;;3.50;99.90;;;;;;4998199;28;94531;-77
2022/01/21 11:20:16;;;;;;;11.63;4.75;;;3.60;99.90;;;;;;4997851;28;96669;-77
2022/01/21 11:23:01;;;;;;;11.90;5.13;;;3.70;99.90;;;;;;5002170;28;96361;-77
2022/01/21 11:25:44;;;;;;;10.85;5.35;;;3.70;99.90;;;;;;5003581;28;94419;-77
2022/01/21 11:28:22;;;;;;;14.75;5.45;;;3.50;99.90;;;;;;5001893;28;94410;-77
2022/01/21 11:30:48;;;;;;;11.60;4.75;;;3.40;99.90;;;;;;5000536;28;97139;-76
2022/01/21 11:33:14;;;;;;;10.70;5.28;;;3.60;99.90;;;;;;5002151;28;94442;-77
2022/01/21 11:35:40;;;;;;;14.25;5.20;;;3.70;99.90;;;;;;4998930;28;94471;-77
2022/01/21 11:38:11;;;;;;;12.35;5.40;;;3.70;99.90;;;;;;4998622;28;93712;-80
2022/01/21 11:40:38;;;;;;;21.00;9.07;;;3.80;99.90;;;;;;5000449;28;95302;-78
2022/01/21 11:43:06;;;;;;;19.40;6.75;;;3.90;99.90;;;;;;5000087;28;95282;-77
2022/01/21 11:45:43;;;;;;;19.42;7.65;;;3.90;99.90;;;;;;4996899;28;95402;-78
2022/01/21 11:50:41;;;;;;;15.73;7.63;;;4.00;99.90;;;;;;4997394;28;94340;-77
2022/01/21 11:53:07;;;;;;;13.68;5.57;;;4.00;99.90;;;;;;4997885;28;95075;-77
2022/01/21 11:55:37;;;;;;;13.80;4.70;;;3.90;99.90;;;;;;4999620;28;94293;-78
2022/01/21 11:58:21;;;;;;;10.50;4.32;;;3.90;99.90;;;;;;4999939;28;94499;-77
2022/01/21 12:00:48;;;;;;;17.65;5.13;;;3.90;99.90;;;;;;4998734;28;95801;-78
2022/01/21 12:03:21;;;;;;;15.80;5.15;;;3.80;99.90;;;;;;4997635;28;96963;-78
2022/01/21 12:05:47;;;;;;;11.88;4.43;;;4.00;99.90;;;;;;4999442;28;94522;-79
2022/01/21 12:08:13;;;;;;;13.05;5.07;;;3.90;99.90;;;;;;4998511;28;94587;-78
2022/01/21 12:10:42;;;;;;;10.65;4.25;;;4.10;99.90;;;;;;4998323;28;99181;-79
2022/01/21 12:13:14;;;;;;;10.95;4.10;;;4.10;99.90;;;;;;4999196;28;97614;-78
2022/01/21 12:21:04;;;;;;;15.70;5.10;;;4.50;99.90;;;;;;5001271;28;94551;-80
2022/01/21 12:23:41;;;;;;;11.52;4.80;;;4.70;99.90;;;;;;5001436;28;97766;-77
2022/01/21 12:26:15;;;;;;;10.60;4.15;;;4.80;99.90;;;;;;5002816;28;94473;-77
2022/01/21 12:28:54;;;;;;;9.27;4.45;;;5.00;99.90;;;;;;5001078;28;93725;-77
2022/01/21 12:31:25;;;;;;;12.85;4.57;;;5.10;99.90;;;;;;5000079;28;96683;-78
2022/01/21 12:34:04;;;;;;;12.20;4.45;;;5.10;99.90;;;;;;5001568;28;95191;-77
2022/01/21 12:36:53;;;;;;;11.10;4.30;;;5.10;99.90;;;;;;5002376;28;95391;-77
2022/01/21 12:39:55;;;;;;;11.48;3.90;;;4.90;99.90;;;;;;5002819;28;94615;-79
2022/01/21 12:42:20;;;;;;;11.55;4.35;;;4.70;99.90;;;;;;5001835;28;96868;-77
2022/01/21 12:45:09;;;;;;;11.40;3.78;;;4.60;99.90;;;;;;5003655;28;95354;-77
2022/01/21 12:47:43;;;;;;;11.30;3.50;;;4.70;99.90;;;;;;4992797;28;94505;-77
2022/01/21 12:50:45;;;;;;;14.05;4.80;;;4.70;99.90;;;;;;5002137;28;94920;-77
2022/01/21 12:53:24;;;;;;;15.52;4.55;;;4.40;99.90;;;;;;5002348;28;96621;-79
2022/01/21 12:55:58;;;;;;;12.68;4.30;;;4.40;99.90;;;;;;5002339;28;98039;-77
2022/01/21 12:58:32;;;;;;;13.05;4.53;;;4.40;99.90;;;;;;5001268;28;94432;-79
2022/01/21 13:01:04;;;;;;;9.48;3.88;;;4.30;99.90;;;;;;5001380;28;94592;-77
2022/01/21 13:03:35;;;;;;;14.98;4.28;;;4.20;99.90;;;;;;5000427;28;97742;-77
2022/01/21 13:06:12;;;;;;;12.68;4.05;;;4.40;99.90;;;;;;5000132;28;99035;-77
2022/01/21 13:09:07;;;;;;;14.63;3.65;;;4.50;99.90;;;;;;5002543;28;96456;-77
2022/01/21 13:11:35;;;;;;;13.85;3.90;;;4.60;99.90;;;;;;5003133;28;94480;-77
2022/01/21 13:17:08;;;;;;;15.70;4.13;;;4.60;99.90;;;;;;4999796;28;94753;-77
2022/01/21 13:19:46;;;;;;;10.65;4.28;;;4.70;99.90;;;;;;5006056;28;94384;-78
2022/01/21 13:22:23;;;;;;;12.00;4.20;;;4.80;99.90;;;;;;5002638;28;93898;-78
2022/01/21 13:25:06;;;;;;;10.82;4.18;;;4.70;99.90;;;;;;5002353;28;96896;-80
2022/01/21 13:27:34;;;;;;;12.48;4.20;;;4.80;99.90;;;;;;5003845;28;94402;-79
2022/01/21 13:30:05;;;;;;;10.63;3.55;;;5.00;99.90;;;;;;5006022;28;95387;-77
2022/01/21 13:32:30;;;;;;;13.25;3.80;;;5.00;99.90;;;;;;5002976;28;94464;-77
2022/01/21 13:35:21;;;;;;;9.70;3.72;;;5.00;99.90;;;;;;5004767;28;95584;-80
2022/01/21 13:38:07;;;;;;;10.60;3.33;;;5.00;99.90;;;;;;5001674;28;96693;-77
2022/01/21 13:40:39;;;;;;;10.20;3.38;;;5.10;99.90;;;;;;4998644;28;94425;-78
2022/01/21 13:43:23;;;;;;;9.40;3.60;;;4.90;99.90;;;;;;5001701;28;94001;-77
2022/01/21 13:46:09;;;;;;;16.33;4.30;;;4.90;99.90;;;;;;4999870;28;95673;-80
2022/01/21 13:48:36;;;;;;;10.00;3.67;;;4.70;99.90;;;;;;5000284;28;96111;-78
2022/01/21 13:51:04;;;;;;;11.32;4.03;;;4.70;99.90;;;;;;4999627;28;94605;-78
2022/01/21 13:53:29;;;;;;;14.48;4.25;;;4.60;99.90;;;;;;5000657;28;94461;-77
2022/01/21 13:56:01;;;;;;;10.57;3.67;;;4.70;99.90;;;;;;4999142;28;97020;-77
2022/01/21 13:58:37;;;;;;;11.25;3.55;;;4.70;99.90;;;;;;5000155;28;97243;-77
2022/01/21 14:01:10;;;;;;;16.00;4.32;;;4.70;99.90;;;;;;5001730;28;94342;-77
2022/01/21 14:03:37;;;;;;;11.43;4.30;;;4.60;99.90;;;;;;4998792;28;94522;-77
2022/01/21 14:06:06;;;;;;;11.02;3.95;;;4.60;99.90;;;;;;4999638;28;94538;-77
2022/01/21 14:08:43;;;;;;;13.85;3.60;;;4.50;99.90;;;;;;5000051;28;95018;-78
2022/01/21 14:11:12;;;;;;;10.82;3.90;;;4.40;99.90;;;;;;5011839;28;94331;-80
2022/01/21 14:13:48;;;;;;;15.68;4.20;;;4.30;99.90;;;;;;5012109;28;93529;-77
2022/01/21 14:16:36;;;;;;;10.73;3.72;;;4.30;99.90;;;;;;5002560;28;95430;-77
2022/01/21 14:19:04;;;;;;;12.13;3.72;;;4.30;99.90;;;;;;4998601;28;97433;-77
2022/01/21 14:21:32;;;;;;;9.52;3.45;;;4.30;99.90;;;;;;5002033;28;95787;-77
2022/01/21 14:24:11;;;;;;;10.68;3.70;;;4.20;99.90;;;;;;5005080;28;94423;-77
2022/01/21 14:26:47;;;;;;;11.55;3.40;;;4.20;99.90;;;;;;5001870;28;97200;-77
2022/01/21 14:29:14;;;;;;;11.90;3.40;;;4.20;99.90;;;;;;5002523;28;94477;-77
2022/01/21 14:31:43;;;;;;;9.75;3.00;;;4.20;99.90;;;;;;5003367;28;94621;-77
2022/01/21 14:34:12;;;;;;;11.52;3.47;;;4.20;99.90;;;;;;4999796;28;94354;-79
2022/01/21 14:36:38;;;;;;;8.30;3.40;;;4.10;99.90;;;;;;4998592;28;95714;-77
2022/01/21 14:39:22;;;;;;;11.95;3.58;;;4.10;99.90;;;;;;4998198;28;96933;-77
2022/01/21 14:41:51;;;;;;;12.82;3.55;;;4.10;99.90;;;;;;4998984;28;94528;-77
2022/01/21 14:44:31;;;;;;;10.80;3.13;;;4.10;99.90;;;;;;4999905;28;94484;-79
2022/01/21 14:47:08;;;;;;;10.07;3.65;;;4.20;99.90;;;;;;4999067;28;96760;-77
2022/01/21 14:49:34;;;;;;;11.60;3.50;;;4.20;99.90;;;;;;4998566;28;98600;-76
2022/01/21 14:52:33;;;;;;;9.13;3.53;;;4.20;99.90;;;;;;5000074;28;94536;-77
2022/01/21 14:54:49;;;;;;;8.60;3.58;;;4.10;99.90;;;;;;5000009;28;94373;-77
2022/01/21 14:57:14;;;;;;;13.10;3.70;;;4.00;99.90;;;;;;4999570;28;94501;-77
2022/01/21 14:59:54;;;;;;;10.90;3.58;;;3.90;99.90;;;;;;4998694;28;96683;-78
2022/01/21 15:02:46;;;;;;;11.15;3.25;;;3.90;99.90;;;;;;4999655;28;94418;-80
2022/01/21 15:05:11;;;;;;;9.85;3.08;;;3.80;99.90;;;;;;4993686;28;93923;-77
2022/01/21 15:07:40;;;;;;;15.93;3.78;;;3.80;99.90;;;;;;4997669;28;97223;-77
2022/01/21 15:10:39;;;;;;;10.95;3.55;;;3.80;99.90;;;;;;4996254;28;96874;-78
2022/01/21 15:16:27;;;;;;;8.77;3.53;;;3.80;99.90;;;;;;4997035;28;94398;-77
2022/01/21 15:18:54;;;;;;;10.30;3.58;;;3.70;99.90;;;;;;4996366;28;97122;-77
2022/01/21 15:21:25;;;;;;;10.07;3.28;;;3.60;99.90;;;;;;4996580;28;94433;-78
2022/01/21 15:23:52;;;;;;;13.05;3.28;;;3.60;99.90;;;;;;4996417;28;94535;-77
2022/01/21 15:26:20;;;;;;;10.05;3.60;;;3.60;99.90;;;;;;4996329;28;94434;-79
2022/01/21 15:28:48;;;;;;;10.60;3.63;;;3.50;99.90;;;;;;4997266;28;95339;-79
2022/01/21 15:31:14;;;;;;;10.02;3.28;;;3.50;99.90;;;;;;4995818;28;96582;-77
2022/01/21 15:33:40;;;;;;;9.70;3.33;;;3.50;99.90;;;;;;4995948;28;94629;-78
2022/01/21 15:36:06;;;;;;;8.43;3.40;;;3.50;99.90;;;;;;4997629;28;94412;-77
2022/01/21 15:38:33;;;;;;;9.25;3.20;;;3.40;99.90;;;;;;4998070;28;95655;-77
2022/01/21 15:40:59;;;;;;;9.75;3.92;;;3.40;99.90;;;;;;4997892;28;95579;-78
2022/01/21 15:43:25;;;;;;;10.63;3.55;;;3.40;99.90;;;;;;4999531;28;94345;-78
2022/01/21 15:45:50;;;;;;;11.93;3.90;;;3.40;99.90;;;;;;4998654;28;94836;-77
2022/01/21 15:48:16;;;;;;;11.30;3.15;;;3.40;99.90;;;;;;4996925;28;95986;-78
2022/01/21 15:50:42;;;;;;;9.70;3.53;;;3.40;99.90;;;;;;4995546;28;96608;-78
2022/01/21 15:53:09;;;;;;;11.15;3.67;;;3.30;99.90;;;;;;4997480;28;94418;-78
2022/01/21 15:55:34;;;;;;;14.60;3.80;;;3.30;99.90;;;;;;4998208;28;93751;-78
2022/01/21 15:58:01;;;;;;;9.88;3.78;;;3.30;99.90;;;;;;4996976;28;97835;-78
2022/01/21 16:00:26;;;;;;;11.50;3.75;;;3.20;99.90;;;;;;4996952;28;96612;-77
2022/01/21 16:02:59;;;;;;;12.27;3.70;;;3.20;99.90;;;;;;4998409;28;95531;-79
2022/01/21 16:05:25;;;;;;;8.10;3.60;;;3.20;99.90;;;;;;4998100;28;94211;-78
2022/01/21 16:07:52;;;;;;;12.68;3.70;;;3.20;99.90;;;;;;4999054;28;96592;-78
2022/01/21 16:10:18;;;;;;;14.63;3.85;;;3.10;99.90;;;;;;4996829;28;96633;-77
2022/01/21 16:12:44;;;;;;;10.35;3.92;;;3.10;99.90;;;;;;4998460;28;94318;-77
2022/01/21 16:15:09;;;;;;;11.13;4.68;;;3.20;99.90;;;;;;4998018;28;94368;-78
2022/01/21 16:17:35;;;;;;;12.27;4.07;;;3.20;99.90;;;;;;4996553;28;98178;-78
2022/01/21 16:20:01;;;;;;;10.38;3.58;;;3.10;99.90;;;;;;4997592;28;97514;-80
2022/01/21 16:22:27;;;;;;;13.40;4.28;;;3.10;99.90;;;;;;4997565;28;94468;-79
2022/01/21 16:24:52;;;;;;;12.27;4.00;;;3.10;99.90;;;;;;4996126;28;94510;-77
2022/01/21 16:27:18;;;;;;;14.55;3.78;;;3.20;99.90;;;;;;4997764;28;96629;-77
2022/01/21 16:29:44;;;;;;;12.15;3.90;;;3.10;99.90;;;;;;4997359;28;94715;-78
2022/01/21 16:32:10;;;;;;;10.82;3.47;;;3.10;99.90;;;;;;4995826;28;94476;-79
2022/01/21 16:34:36;;;;;;;13.02;3.85;;;3.20;99.90;;;;;;4996976;28;94529;-77
2022/01/21 16:37:05;;;;;;;11.90;4.43;;;3.20;99.90;;;;;;4997728;28;95585;-77
2022/01/21 16:39:32;;;;;;;11.80;3.88;;;3.20;99.90;;;;;;4997289;28;94427;-77
2022/01/21 16:41:59;;;;;;;7.05;3.30;;;3.20;99.90;;;;;;4998796;28;94349;-77
2022/01/21 16:44:27;;;;;;;8.57;3.63;;;3.30;99.90;;;;;;4998660;28;93747;-77
2022/01/21 16:46:52;;;;;;;14.00;3.95;;;3.30;99.90;;;;;;4996397;28;97095;-77
2022/01/21 16:49:18;;;;;;;15.77;4.60;;;3.20;99.90;;;;;;4995356;28;96637;-77
2022/01/21 16:51:43;;;;;;;13.82;4.22;;;3.20;99.90;;;;;;4995065;28;95423;-78
2022/01/21 16:54:09;;;;;;;11.13;3.83;;;3.20;99.90;;;;;;4996778;28;94690;-78
2022/01/21 16:56:40;;;;;;;11.93;3.47;;;3.20;99.90;;;;;;4997291;28;98288;-78
2022/01/21 16:59:05;;;;;;;7.60;3.65;;;3.20;99.90;;;;;;4998143;28;95223;-78
2022/01/21 17:01:31;;;;;;;9.05;3.30;;;3.20;99.90;;;;;;5000816;28;94432;-78
2022/01/21 17:03:57;;;;;;;9.70;3.20;;;3.20;99.90;;;;;;4998800;28;94517;-78
2022/01/21 17:06:26;;;;;;;11.95;3.95;;;3.20;99.90;;;;;;4999120;28;96847;-79
2022/01/21 17:08:53;;;;;;;13.25;4.97;;;3.10;99.90;;;;;;4999672;28;96975;-77
2022/01/21 17:11:19;;;;;;;14.05;6.57;;;3.00;99.90;;;;;;5001113;28;94939;-79
2022/01/21 17:13:44;;;;;;;13.05;5.32;;;3.00;99.90;;;;;;5000250;28;94448;-79
2022/01/21 17:16:10;;;;;;;17.20;7.07;;;3.10;99.90;;;;;;4998926;28;96158;-81
2022/01/21 17:18:36;;;;;;;19.58;8.30;;;3.10;99.90;;;;;;4999194;28;95155;-80
2022/01/21 17:21:02;;;;;;;22.85;11.07;;;3.00;99.90;;;;;;4998594;28;94381;-80
2022/01/21 17:23:27;;;;;;;30.00;13.00;;;3.00;99.90;;;;;;4996514;28;94068;-80
2022/01/21 17:25:54;;;;;;;15.73;7.88;;;2.90;99.90;;;;;;5006341;28;97970;-78
2022/01/21 17:28:19;;;;;;;19.95;8.85;;;3.00;99.90;;;;;;5017326;28;96853;-81
2022/01/21 17:30:45;;;;;;;18.85;8.55;;;3.00;99.90;;;;;;5008644;28;94385;-81
2022/01/21 17:33:14;;;;;;;16.17;7.55;;;3.00;99.90;;;;;;4999716;28;93910;-80
2022/01/21 17:35:39;;;;;;;13.48;7.13;;;3.00;99.90;;;;;;5000367;28;94459;-79
2022/01/21 17:38:10;;;;;;;12.10;5.22;;;3.00;99.90;;;;;;4999803;28;96373;-79
2022/01/21 17:40:37;;;;;;;16.17;5.53;;;3.00;99.90;;;;;;4999564;28;95385;-80
2022/01/21 17:43:03;;;;;;;15.30;5.35;;;3.00;99.90;;;;;;4999505;28;94916;-78
2022/01/21 17:45:29;;;;;;;14.63;5.35;;;3.00;99.90;;;;;;4998858;28;94472;-78
2022/01/21 17:47:55;;;;;;;10.57;4.55;;;3.10;99.90;;;;;;4999113;28;94478;-79
2022/01/21 17:50:24;;;;;;;13.70;5.40;;;3.10;99.90;;;;;;4997224;28;94638;-79
2022/01/21 17:52:50;;;;;;;12.05;5.03;;;3.10;99.90;;;;;;5000058;28;94436;-79
2022/01/21 17:55:16;;;;;;;17.30;7.38;;;3.10;99.90;;;;;;4998939;28;98271;-79
2022/01/21 17:57:43;;;;;;;13.23;6.03;;;3.10;99.90;;;;;;4997579;28;97331;-78
2022/01/21 18:00:12;;;;;;;15.85;6.45;;;3.10;99.90;;;;;;4996964;28;94569;-80
2022/01/21 18:02:38;;;;;;;14.52;5.43;;;3.10;99.90;;;;;;5000128;28;94789;-79
2022/01/21 18:05:04;;;;;;;16.13;5.70;;;3.00;99.90;;;;;;4997629;28;95349;-79
2022/01/21 18:07:30;;;;;;;14.68;5.05;;;3.00;99.90;;;;;;4997908;28;98041;-80
2022/01/21 18:09:58;;;;;;;10.38;4.82;;;3.00;99.90;;;;;;4996442;28;94476;-80
2022/01/21 18:12:23;;;;;;;16.00;5.65;;;3.00;99.90;;;;;;4995930;28;94552;-80
2022/01/21 18:14:51;;;;;;;16.35;4.70;;;3.00;99.90;;;;;;4996581;28;98196;-80
2022/01/21 18:17:16;;;;;;;14.75;4.70;;;3.10;99.90;;;;;;4997955;28;95379;-80